Time;durP1;ratioP1;P1;durP2;ratioP2;P2;SDS_P1;SDS_P2;PMS_P1;PMS_P2;Temp;Humidity;BMP_temperature;BMP_pressure;BME280_temperature;BME280_humidity;BME280_pressure;Samples;Min_cycle;Max_cycle;Signal;HPM_P1;HPM_P2
2022/05/29 00:00:15;;;;;;;;;;;;;;;18.19;57.65;97633.34;5079149;28;19936;-58
2022/05/29 00:02:42;;;;;;;;;;;;;;;17.98;57.07;97631.56;5070270;28;20003;-58
2022/05/29 00:05:09;;;;;;;;;;;;;;;17.79;58.33;97623.78;5078698;28;19992;-59
2022/05/29 00:07:35;;;;;;;;;;;;;;;17.31;59.31;97628.38;5081007;28;19985;-59
2022/05/29 00:10:04;;;;;;;;;;;;;;;17.59;60.01;97627.06;5081970;28;19925;-59
2022/05/29 00:12:31;;;;;;;;;;;;;;;17.84;58.45;97620.91;5077636;28;19972;-59
2022/05/29 00:14:58;;;;;;;;;;;;;;;17.87;58.42;97622.97;5081951;28;19963;-59
2022/05/29 00:17:25;;;;;;;;;;;;;;;17.40;59.43;97632.69;5080743;28;19942;-58
2022/05/29 00:19:51;;;;;;;;;;;;;;;17.50;59.51;97632.41;5078355;28;19975;-59
2022/05/29 00:22:18;;;;;;;;;;;;;;;17.82;58.13;97628.53;5078567;28;20000;-59
2022/05/29 00:24:48;;;;;;;;;;;;;;;17.67;57.56;97620.91;5081885;28;20019;-59
2022/05/29 00:27:16;;;;;;;;;;;;;;;17.31;58.44;97614.88;5081821;28;19936;-59
2022/05/29 00:29:44;;;;;;;;;;;;;;;17.60;58.33;97620.56;5070173;28;19932;-59
2022/05/29 00:32:11;;;;;;;;;;;;;;;17.78;57.45;97616.78;5078368;28;19936;-59
2022/05/29 00:34:37;;;;;;;;;;;;;;;17.90;56.92;97625.03;5081030;28;19975;-59
2022/05/29 00:37:05;;;;;;;;;;;;;;;18.01;56.44;97626.31;5081764;28;19924;-60
2022/05/29 00:39:32;;;;;;;;;;;;;;;18.06;56.16;97618.06;5079553;28;19926;-59
2022/05/29 00:41:58;;;;;;;;;;;;;;;18.09;55.91;97617.44;5078351;28;19971;-59
2022/05/29 00:44:25;;;;;;;;;;;;;;;18.12;55.79;97614.09;5079533;28;19927;-60
2022/05/29 00:46:54;;;;;;;;;;;;;;;18.09;56.00;97622.03;5081607;28;19925;-59
2022/05/29 00:49:21;;;;;;;;;;;;;;;18.07;55.85;97614.22;5081019;28;20030;-59
2022/05/29 00:51:51;;;;;;;;;;;;;;;18.08;55.74;97613.13;5078142;28;20348;-59
2022/05/29 00:54:17;;;;;;;;;;;;;;;18.04;55.82;97609.47;5078236;28;19920;-59
2022/05/29 00:56:44;;;;;;;;;;;;;;;18.07;55.84;97616.16;5081365;28;19928;-59
2022/05/29 00:59:12;;;;;;;;;;;;;;;18.04;55.76;97614.88;5081549;28;20003;-59
2022/05/29 01:01:38;;;;;;;;;;;;;;;17.88;56.08;97604.88;5078598;28;19988;-60
2022/05/29 01:04:07;;;;;;;;;;;;;;;17.52;56.72;97605.09;5078280;28;19988;-59
2022/05/29 01:06:34;;;;;;;;;;;;;;;16.92;58.35;97608.41;5080284;28;20024;-59
2022/05/29 01:09:01;;;;;;;;;;;;;;;16.32;61.46;97601.84;5081353;28;19925;-59
2022/05/29 01:11:34;;;;;;;;;;;;;;;16.55;62.80;97598.88;5079709;28;19932;-59
2022/05/29 01:14:09;;;;;;;;;;;;;;;16.34;63.63;97600.44;5077983;28;19935;-59
2022/05/29 01:16:41;;;;;;;;;;;;;;;16.40;63.75;97598.44;5080534;28;20005;-59
2022/05/29 01:19:31;;;;;;;;;;;;;;;16.51;63.54;97605.94;5081142;28;19920;-59
2022/05/29 01:22:05;;;;;;;;;;;;;;;17.07;62.03;97608.00;5072272;28;20032;-59
2022/05/29 01:24:44;;;;;;;;;;;;;;;17.36;60.45;97590.47;5083753;28;19988;-59
2022/05/29 01:27:19;;;;;;;;;;;;;;;17.56;59.43;97585.28;5085255;28;20012;-59
2022/05/29 01:29:55;;;;;;;;;;;;;;;17.63;58.80;97590.22;5073826;28;19925;-59
2022/05/29 01:32:27;;;;;;;;;;;;;;;17.63;58.60;97588.31;5082064;28;19925;-59
2022/05/29 01:34:55;;;;;;;;;;;;;;;17.13;59.61;97587.06;5084887;28;19992;-59
2022/05/29 01:37:24;;;;;;;;;;;;;;;17.04;60.85;97581.66;5084196;28;20000;-59
2022/05/29 01:39:53;;;;;;;;;;;;;;;17.08;61.38;97571.03;5081483;28;19992;-59
2022/05/29 01:42:24;;;;;;;;;;;;;;;17.24;60.19;97575.66;5082073;28;20043;-59
2022/05/29 01:44:55;;;;;;;;;;;;;;;17.35;59.81;97580.78;5084855;28;19967;-59
2022/05/29 01:47:23;;;;;;;;;;;;;;;17.48;59.07;97574.47;5083734;28;19996;-59
2022/05/29 01:49:51;;;;;;;;;;;;;;;17.37;59.52;97562.34;5081247;28;19925;-59
2022/05/29 01:52:26;;;;;;;;;;;;;;;17.23;59.16;97567.91;5081441;28;20326;-59
2022/05/29 01:55:08;;;;;;;;;;;;;;;17.08;59.22;97561.00;5084728;28;19975;-59
2022/05/29 01:57:36;;;;;;;;;;;;;;;16.58;62.02;97560.53;5082033;28;19952;-59
2022/05/29 02:00:06;;;;;;;;;;;;;;;15.89;64.27;97556.56;5081130;28;19925;-59
2022/05/29 02:02:36;;;;;;;;;;;;;;;15.26;69.12;97558.47;5082587;28;19925;-58
2022/05/29 02:05:09;;;;;;;;;;;;;;;15.19;71.65;97552.72;5084064;28;19959;-58
2022/05/29 02:07:48;;;;;;;;;;;;;;;14.69;75.99;97543.78;5081198;28;19955;-58
2022/05/29 02:10:18;;;;;;;;;;;;;;;14.42;82.03;97542.63;5080295;28;19970;-58
2022/05/29 02:12:49;;;;;;;;;;;;;;;14.44;82.53;97550.41;5071888;28;19943;-59
2022/05/29 02:15:19;;;;;;;;;;;;;;;14.59;82.10;97542.06;5083622;28;19931;-58
2022/05/29 02:17:48;;;;;;;;;;;;;;;14.47;81.98;97542.56;5058860;28;19925;-58
2022/05/29 02:20:18;;;;;;;;;;;;;;;15.16;79.59;97542.56;5076078;28;19979;-58
2022/05/29 02:22:49;;;;;;;;;;;;;;;15.65;76.39;97539.91;5072172;28;19932;-58
2022/05/29 02:25:18;;;;;;;;;;;;;;;15.89;72.68;97540.41;5079935;28;20012;-58
2022/05/29 02:27:47;;;;;;;;;;;;;;;15.85;70.86;97533.22;5071995;28;19988;-58
2022/05/29 02:30:14;;;;;;;;;;;;;;;15.86;69.96;97521.34;5080143;28;19924;-59
2022/05/29 02:32:49;;;;;;;;;;;;;;;16.27;69.29;97526.53;5099163;28;20019;-59
2022/05/29 02:35:18;;;;;;;;;;;;;;;16.47;68.04;97517.91;5082660;28;19924;-59
2022/05/29 02:37:46;;;;;;;;;;;;;;;15.90;68.45;97520.47;5071830;28;19936;-58
2022/05/29 02:40:19;;;;;;;;;;;;;;;15.79;69.74;97513.72;5079797;28;19955;-58
2022/05/29 02:42:49;;;;;;;;;;;;;;;15.83;69.50;97512.00;5071689;28;19924;-58
2022/05/29 02:45:18;;;;;;;;;;;;;;;15.17;71.82;97507.28;5083109;28;19925;-57
2022/05/29 02:47:50;;;;;;;;;;;;;;;15.52;73.72;97503.06;5071657;28;19959;-57
2022/05/29 02:50:24;;;;;;;;;;;;;;;15.55;72.55;97503.25;5079609;28;19921;-58
2022/05/29 02:52:52;;;;;;;;;;;;;;;15.20;73.11;97508.56;5072573;28;19992;-58
2022/05/29 02:55:19;;;;;;;;;;;;;;;15.81;71.72;97500.75;5079576;28;20421;-59
2022/05/29 02:57:45;;;;;;;;;;;;;;;15.77;70.41;97499.75;5083078;28;19948;-59
2022/05/29 03:00:13;;;;;;;;;;;;;;;16.33;68.22;97495.66;5083097;28;19924;-59
2022/05/29 03:02:43;;;;;;;;;;;;;;;16.10;68.10;97493.00;5079903;28;19939;-59
2022/05/29 03:05:14;;;;;;;;;;;;;;;16.35;66.66;97490.75;5078283;28;19925;-59
2022/05/29 03:07:44;;;;;;;;;;;;;;;16.20;66.01;97486.56;5082698;28;20014;-59
2022/05/29 03:10:15;;;;;;;;;;;;;;;15.42;67.99;97492.47;5083149;28;19943;-59
2022/05/29 03:12:49;;;;;;;;;;;;;;;14.91;72.16;97485.53;5078410;28;19968;-58
2022/05/29 03:15:19;;;;;;;;;;;;;;;14.30;78.14;97479.72;5082597;28;19951;-57
2022/05/29 03:17:49;;;;;;;;;;;;;;;14.06;82.15;97477.19;5071413;28;20288;-58
2022/05/29 03:20:23;;;;;;;;;;;;;;;14.98;77.58;97472.47;5079113;28;19953;-58
2022/05/29 03:22:54;;;;;;;;;;;;;;;15.71;73.74;97470.56;5072044;28;19992;-59
2022/05/29 03:25:22;;;;;;;;;;;;;;;15.55;72.70;97465.56;5079631;28;19925;-59
2022/05/29 03:27:50;;;;;;;;;;;;;;;15.71;71.13;97463.31;5082725;28;19924;-59
2022/05/29 03:30:18;;;;;;;;;;;;;;;15.44;71.09;97464.16;5082718;28;19988;-59
2022/05/29 03:32:45;;;;;;;;;;;;;;;15.54;71.15;97449.72;5071133;28;19964;-59
2022/05/29 03:35:21;;;;;;;;;;;;;;;16.05;68.55;97449.25;5078991;28;19964;-59
2022/05/29 03:37:48;;;;;;;;;;;;;;;16.00;67.80;97439.38;5071540;28;19936;-59
2022/05/29 03:40:14;;;;;;;;;;;;;;;15.82;68.07;97440.41;5078775;28;19980;-59
2022/05/29 03:42:40;;;;;;;;;;;;;;;15.82;68.51;97434.22;5081944;28;19978;-59
2022/05/29 03:45:08;;;;;;;;;;;;;;;15.91;67.65;97435.84;5081780;28;19988;-59
2022/05/29 03:47:34;;;;;;;;;;;;;;;15.57;68.10;97432.94;5078697;28;19983;-59
2022/05/29 03:50:01;;;;;;;;;;;;;;;15.48;69.85;97435.59;5078773;28;20151;-59
2022/05/29 03:52:30;;;;;;;;;;;;;;;15.51;69.42;97426.09;5078843;28;19924;-59
2022/05/29 03:54:57;;;;;;;;;;;;;;;15.18;70.61;97422.03;5082039;28;19928;-58
2022/05/29 03:57:23;;;;;;;;;;;;;;;15.57;69.62;97414.09;5080679;28;19970;-58
2022/05/29 03:59:49;;;;;;;;;;;;;;;15.49;70.65;97425.63;5078175;28;19961;-58
2022/05/29 04:02:16;;;;;;;;;;;;;;;15.30;70.29;97430.34;5078358;28;19927;-58
2022/05/29 04:04:43;;;;;;;;;;;;;;;15.38;72.15;97424.25;5069925;28;19924;-58
2022/05/29 04:07:09;;;;;;;;;;;;;;;15.36;72.52;97429.13;5078438;28;19924;-58
2022/05/29 04:12:21;;;;;;;;;;;;;;;15.22;71.13;97436.47;5077333;28;19963;-58
2022/05/29 04:14:47;;;;;;;;;;;;;;;15.87;69.73;97432.22;5081745;28;19984;-58
2022/05/29 04:17:15;;;;;;;;;;;;;;;16.05;68.32;97425.81;5081628;28;20526;-59
2022/05/29 04:19:42;;;;;;;;;;;;;;;16.16;66.98;97439.78;5078155;28;19952;-58
2022/05/29 04:22:09;;;;;;;;;;;;;;;16.23;66.03;97436.66;5078197;28;19984;-58
2022/05/29 04:24:37;;;;;;;;;;;;;;;15.52;66.66;97436.56;5080569;28;19952;-58
2022/05/29 04:27:04;;;;;;;;;;;;;;;14.83;72.14;97437.03;5081548;28;19935;-58
2022/05/29 04:29:32;;;;;;;;;;;;;;;14.36;79.17;97427.53;5079580;28;19984;-58
2022/05/29 04:34:43;;;;;;;;;;;;;;;15.71;72.61;97422.91;5069968;28;19925;-58
2022/05/29 04:37:09;;;;;;;;;;;;;;;15.78;70.03;97430.56;5078086;28;19984;-58
2022/05/29 04:39:37;;;;;;;;;;;;;;;14.95;75.69;97421.97;5080465;28;19925;-58
2022/05/29 04:42:04;;;;;;;;;;;;;;;15.23;74.78;97424.59;5078938;28;20015;-58
2022/05/29 04:44:30;;;;;;;;;;;;;;;14.63;78.61;97424.03;5078410;28;19932;-59
2022/05/29 04:46:58;;;;;;;;;;;;;;;15.22;76.45;97426.50;5081286;28;19928;-58
2022/05/29 04:49:25;;;;;;;;;;;;;;;15.85;71.37;97407.47;5080449;28;19921;-59
2022/05/29 04:51:51;;;;;;;;;;;;;;;16.17;68.38;97422.53;5078244;28;19996;-59
2022/05/29 04:54:17;;;;;;;;;;;;;;;15.79;70.36;97407.91;5078111;28;19944;-59
2022/05/29 04:56:47;;;;;;;;;;;;;;;15.22;72.21;97414.94;5081441;28;19930;-59
2022/05/29 04:59:14;;;;;;;;;;;;;;;14.51;79.45;97416.50;5085638;28;19992;-59
2022/05/29 05:01:40;;;;;;;;;;;;;;;13.88;82.32;97417.13;5082043;28;19956;-59
2022/05/29 05:04:07;;;;;;;;;;;;;;;13.51;86.46;97412.66;5082097;28;19925;-59
2022/05/29 05:06:34;;;;;;;;;;;;;;;13.13;90.21;97416.47;5084162;28;20009;-58
2022/05/29 05:09:01;;;;;;;;;;;;;;;13.17;92.08;97425.53;5084110;28;19924;-59
2022/05/29 05:11:27;;;;;;;;;;;;;;;13.26;90.49;97423.78;5083969;28;20384;-57
2022/05/29 05:13:55;;;;;;;;;;;;;;;13.20;90.32;97424.16;5081713;28;19924;-57
2022/05/29 05:16:23;;;;;;;;;;;;;;;12.85;93.10;97418.19;5082277;28;19936;-58
2022/05/29 05:18:49;;;;;;;;;;;;;;;12.33;96.26;97423.69;5085293;28;19928;-58
2022/05/29 05:21:15;;;;;;;;;;;;;;;12.62;95.33;97419.03;5085230;28;19945;-58
2022/05/29 05:23:42;;;;;;;;;;;;;;;12.90;93.58;97412.75;5081565;28;19995;-58
2022/05/29 05:26:09;;;;;;;;;;;;;;;13.46;88.94;97409.28;5081599;28;20011;-58
2022/05/29 05:28:36;;;;;;;;;;;;;;;13.81;86.64;97407.84;5083975;28;19940;-59
2022/05/29 05:31:03;;;;;;;;;;;;;;;14.18;84.89;97414.94;5084843;28;19931;-59
2022/05/29 05:33:30;;;;;;;;;;;;;;;14.85;81.70;97410.66;5082868;28;19963;-58
2022/05/29 05:35:59;;;;;;;;;;;;;;;14.63;80.21;97415.97;5081191;28;19988;-58
2022/05/29 05:38:25;;;;;;;;;;;;;;;14.52;81.93;97416.19;5082254;28;20435;-59
2022/05/29 05:40:52;;;;;;;;;;;;;;;14.34;83.40;97416.28;5084629;28;19925;-59
2022/05/29 05:43:19;;;;;;;;;;;;;;;13.94;87.20;97417.81;5084180;28;19924;-58
2022/05/29 05:45:45;;;;;;;;;;;;;;;14.41;84.33;97408.63;5080872;28;19928;-58
2022/05/29 05:48:13;;;;;;;;;;;;;;;14.31;84.87;97414.16;5080958;28;19924;-58
2022/05/29 05:50:39;;;;;;;;;;;;;;;15.13;80.07;97412.19;5083768;28;19928;-58
2022/05/29 05:53:06;;;;;;;;;;;;;;;15.48;76.49;97414.06;5084370;28;20074;-58
2022/05/29 05:55:32;;;;;;;;;;;;;;;15.77;74.52;97408.22;5081991;28;19967;-58
2022/05/29 05:57:58;;;;;;;;;;;;;;;15.86;73.37;97406.38;5080751;28;19991;-58
2022/05/29 06:00:25;;;;;;;;;;;;;;;15.54;75.67;97402.06;5081342;28;19975;-58
2022/05/29 06:02:51;;;;;;;;;;;;;;;15.56;76.37;97412.53;5084116;28;20011;-58
2022/05/29 06:05:19;;;;;;;;;;;;;;;15.71;75.30;97406.78;5083794;28;19980;-59
2022/05/29 06:07:45;;;;;;;;;;;;;;;15.20;79.12;97415.22;5096008;28;19936;-58
2022/05/29 06:10:12;;;;;;;;;;;;;;;14.54;85.39;97407.84;5080527;28;19931;-58
2022/05/29 06:12:41;;;;;;;;;;;;;;;15.03;82.60;97407.03;5083170;28;19992;-60
2022/05/29 06:15:08;;;;;;;;;;;;;;;15.69;77.80;97411.66;5084098;28;19991;-59
2022/05/29 06:17:37;;;;;;;;;;;;;;;16.05;74.86;97408.84;5081390;28;19967;-59
2022/05/29 06:20:06;;;;;;;;;;;;;;;15.95;75.07;97404.53;5080743;28;19929;-59
2022/05/29 06:22:36;;;;;;;;;;;;;;;15.50;77.95;97421.84;5082551;28;19924;-59
2022/05/29 06:25:03;;;;;;;;;;;;;;;15.26;80.63;97416.69;5083868;28;19924;-59
2022/05/29 06:27:29;;;;;;;;;;;;;;;15.05;82.03;97416.38;5081939;28;19924;-59
2022/05/29 06:29:56;;;;;;;;;;;;;;;14.94;83.54;97414.22;5080303;28;19946;-59
2022/05/29 06:32:22;;;;;;;;;;;;;;;15.61;79.51;97415.09;5080820;28;20012;-59
2022/05/29 06:34:48;;;;;;;;;;;;;;;15.55;79.62;97413.63;5083704;28;19960;-59
2022/05/29 06:37:17;;;;;;;;;;;;;;;15.41;81.16;97416.34;5083600;28;19925;-59
2022/05/29 06:39:45;;;;;;;;;;;;;;;15.53;80.17;97408.56;5072093;28;19940;-59
2022/05/29 06:42:13;;;;;;;;;;;;;;;15.55;80.42;97405.56;5080275;28;19924;-59
2022/05/29 06:44:40;;;;;;;;;;;;;;;15.46;80.63;97412.75;5083161;28;19931;-59
2022/05/29 06:47:08;;;;;;;;;;;;;;;15.75;79.22;97406.94;5083614;28;19988;-59
2022/05/29 06:49:34;;;;;;;;;;;;;;;15.20;82.47;97409.84;5081250;28;19932;-59
2022/05/29 06:52:01;;;;;;;;;;;;;;;15.24;81.74;97410.84;5079949;28;19932;-59
2022/05/29 06:54:27;;;;;;;;;;;;;;;15.37;81.11;97409.19;5080959;28;20007;-58
2022/05/29 06:56:55;;;;;;;;;;;;;;;14.75;84.86;97411.69;5083141;28;19948;-58
2022/05/29 06:59:21;;;;;;;;;;;;;;;14.42;87.66;97410.22;5082549;28;19983;-57
2022/05/29 07:07:30;;;;;;;;;;;;;;;15.22;83.88;97413.06;4999614;28;19926;-59
2022/05/29 07:09:57;;;;;;;;;;;;;;;15.75;80.17;97401.56;4998245;28;19926;-59
2022/05/29 07:12:26;;;;;;;;;;;;;;;15.85;79.06;97398.59;5033796;28;20009;-58
2022/05/29 07:14:54;;;;;;;;;;;;;;;16.15;76.32;97405.88;5083126;28;19924;-59
2022/05/29 07:17:22;;;;;;;;;;;;;;;16.38;74.76;97401.19;5082531;28;20466;-59
2022/05/29 07:19:48;;;;;;;;;;;;;;;16.60;73.29;97406.53;5078808;28;19936;-59
2022/05/29 07:22:15;;;;;;;;;;;;;;;16.26;74.54;97415.28;5079729;28;19929;-59
2022/05/29 07:24:42;;;;;;;;;;;;;;;16.40;74.53;97410.56;5082959;28;19929;-59
2022/05/29 07:27:08;;;;;;;;;;;;;;;16.20;75.76;97406.53;5083106;28;19925;-60
2022/05/29 07:29:36;;;;;;;;;;;;;;;15.80;79.60;97410.31;5080629;28;19920;-58
2022/05/29 07:32:04;;;;;;;;;;;;;;;15.45;86.92;97411.16;5079672;28;19947;-58
2022/05/29 07:34:31;;;;;;;;;;;;;;;15.55;84.91;97411.75;5081236;28;19964;-58
2022/05/29 07:37:01;;;;;;;;;;;;;;;15.74;83.41;97405.34;5082869;28;19932;-58
2022/05/29 07:39:28;;;;;;;;;;;;;;;15.81;84.44;97409.22;5081291;28;19974;-59
2022/05/29 07:44:39;;;;;;;;;;;;;;;16.27;80.92;97399.91;5082235;28;19928;-58
2022/05/29 07:47:08;;;;;;;;;;;;;;;16.56;78.94;97398.28;5082774;28;19968;-58
2022/05/29 07:49:34;;;;;;;;;;;;;;;16.39;81.77;97405.50;5079299;28;19951;-59
2022/05/29 07:52:01;;;;;;;;;;;;;;;16.35;80.39;97391.84;5079332;28;19952;-58
2022/05/29 07:54:27;;;;;;;;;;;;;;;16.15;82.00;97397.81;5080653;28;20007;-58
2022/05/29 07:56:53;;;;;;;;;;;;;;;16.18;81.58;97397.19;5082642;28;19959;-58
2022/05/29 07:59:20;;;;;;;;;;;;;;;16.22;81.58;97392.75;5082378;28;19927;-59
2022/05/29 08:01:48;;;;;;;;;;;;;;;16.38;80.82;97393.91;5079200;28;19925;-60
2022/05/29 08:04:15;;;;;;;;;;;;;;;16.46;80.15;97389.66;5078287;28;19936;-58
2022/05/29 08:06:41;;;;;;;;;;;;;;;16.47;79.00;97394.72;5082118;28;19933;-58
2022/05/29 08:09:08;;;;;;;;;;;;;;;16.67;77.80;97393.38;5082337;28;19925;-59
2022/05/29 08:11:34;;;;;;;;;;;;;;;16.65;77.84;97398.28;5080035;28;19963;-59
2022/05/29 08:14:01;;;;;;;;;;;;;;;16.91;76.38;97392.94;5078915;28;19925;-59
2022/05/29 08:16:28;;;;;;;;;;;;;;;17.18;74.28;97393.44;5080116;28;19925;-59
2022/05/29 08:18:55;;;;;;;;;;;;;;;17.42;72.89;97387.56;5082396;28;19925;-60
2022/05/29 08:21:22;;;;;;;;;;;;;;;17.47;71.89;97392.78;5081450;28;19954;-60
2022/05/29 08:31:57;;;;;;;;;;;;;;;17.80;68.69;97390.34;5072383;28;19925;-60
2022/05/29 08:34:24;;;;;;;;;;;;;;;17.79;74.29;97377.97;5078968;28;19925;-59
2022/05/29 08:36:51;;;;;;;;;;;;;;;20.04;81.32;97376.88;5082007;28;19925;-60
2022/05/29 08:39:17;;;;;;;;;;;;;;;20.61;78.62;97378.75;5082045;28;19971;-60
2022/05/29 08:41:46;;;;;;;;;;;;;;;20.75;78.57;97379.19;5070117;28;19963;-60
2022/05/29 08:44:14;;;;;;;;;;;;;;;20.79;74.53;97375.44;5074403;28;19924;-60
2022/05/29 08:46:42;;;;;;;;;;;;;;;19.29;55.73;97378.91;5081462;28;19939;-60
2022/05/29 08:49:11;;;;;;;;;;;;;;;18.60;57.56;97378.59;5081936;28;19931;-60
2022/05/29 08:51:54;;;;;;;;;;;;;;;17.99;57.63;97363.75;5079087;28;19925;-59
2022/05/29 08:54:25;;;;;;;;;;;;;;;17.87;57.45;97371.75;5077582;28;19936;-60
2022/05/29 08:56:56;;;;;;;;;;;;;;;18.33;59.21;97377.13;5081418;28;19935;-60
2022/05/29 08:59:32;;;;;;;;;;;;;;;18.21;56.44;97371.63;5079867;28;19977;-59
2022/05/29 09:02:04;;;;;;;;;;;;;;;17.97;53.78;97373.31;5078112;28;19925;-59
2022/05/29 09:04:32;;;;;;;;;;;;;;;17.60;53.61;97358.66;5080009;28;19925;-61
2022/05/29 09:07:03;;;;;;;;;;;;;;;17.31;55.77;97356.59;5081853;28;19924;-60
2022/05/29 09:09:32;;;;;;;;;;;;;;;17.69;58.11;97356.72;5080158;28;19993;-59
2022/05/29 09:12:01;;;;;;;;;;;;;;;18.16;57.26;97361.00;5076994;28;19925;-59
2022/05/29 09:14:34;;;;;;;;;;;;;;;20.94;70.68;97349.50;5095056;28;20020;-60
2022/05/29 09:17:03;;;;;;;;;;;;;;;19.77;59.93;97353.13;5081553;28;19986;-60
2022/05/29 09:19:34;;;;;;;;;;;;;;;18.71;59.05;97355.47;5079950;28;19962;-60
2022/05/29 09:22:04;;;;;;;;;;;;;;;18.22;57.98;97359.72;5078317;28;19967;-59
2022/05/29 09:24:48;;;;;;;;;;;;;;;17.31;56.52;97350.41;5079826;28;19947;-60
2022/05/29 09:27:16;;;;;;;;;;;;;;;19.53;76.75;97358.50;5081670;28;19921;-59
2022/05/29 09:29:42;;;;;;;;;;;;;;;20.17;71.87;97354.09;5078132;28;19985;-60
2022/05/29 09:32:11;;;;;;;;;;;;;;;19.06;59.51;97361.44;5078118;28;19944;-60
2022/05/29 09:34:38;;;;;;;;;;;;;;;18.29;59.90;97368.06;5080625;28;19955;-58
2022/05/29 09:37:11;;;;;;;;;;;;;;;17.48;56.46;97363.88;5081387;28;19920;-57
2022/05/29 09:39:39;;;;;;;;;;;;;;;16.69;57.35;97380.38;5078428;28;19946;-59
2022/05/29 09:42:09;;;;;;;;;;;;;;;16.77;61.64;97385.00;5077933;28;19940;-60
2022/05/29 09:44:36;;;;;;;;;;;;;;;16.48;66.89;97385.56;5083459;28;19961;-59
2022/05/29 09:49:45;;;;;;;;;;;;;;;15.80;78.40;97385.28;5073907;28;19924;-59
2022/05/29 09:52:14;;;;;;;;;;;;;;;16.78;71.69;97405.44;5081631;28;19951;-59
2022/05/29 09:54:44;;;;;;;;;;;;;;;17.82;73.27;97412.47;5084578;28;19970;-59
2022/05/29 09:57:12;;;;;;;;;;;;;;;19.17;73.90;97426.75;5084762;28;19952;-59
2022/05/29 09:59:40;;;;;;;;;;;;;;;19.55;69.53;97413.09;5082048;28;19965;-58
2022/05/29 10:02:07;;;;;;;;;;;;;;;17.83;64.83;97414.03;5081533;28;19955;-60
2022/05/29 10:04:35;;;;;;;;;;;;;;;17.44;72.27;97400.72;5083543;28;19924;-59
2022/05/29 10:07:12;;;;;;;;;;;;;;;18.51;80.09;97393.28;5085148;28;19920;-58
2022/05/29 10:09:53;;;;;;;;;;;;;;;19.80;76.84;97403.94;5081834;28;19952;-58
2022/05/29 10:12:21;;;;;;;;;;;;;;;19.61;70.39;97384.69;5081381;28;20004;-59
2022/05/29 10:14:48;;;;;;;;;;;;;;;17.99;69.90;97379.19;5084529;28;19996;-59
2022/05/29 10:17:15;;;;;;;;;;;;;;;17.34;64.17;97382.94;5084737;28;20016;-59
2022/05/29 10:19:43;;;;;;;;;;;;;;;17.40;74.50;97381.66;5081339;28;19925;-60
2022/05/29 10:22:12;;;;;;;;;;;;;;;17.49;75.65;97384.34;5081449;28;19928;-60
2022/05/29 10:24:40;;;;;;;;;;;;;;;19.22;84.01;97381.34;5084039;28;19975;-59
2022/05/29 10:27:08;;;;;;;;;;;;;;;20.26;77.28;97370.28;5083837;28;19928;-60
2022/05/29 10:29:37;;;;;;;;;;;;;;;20.60;73.42;97377.94;5082348;28;19924;-60
2022/05/29 10:32:06;;;;;;;;;;;;;;;19.81;70.81;97373.00;5080022;28;19924;-59
2022/05/29 10:34:33;;;;;;;;;;;;;;;20.58;73.16;97374.78;5083027;28;19964;-59
2022/05/29 10:37:01;;;;;;;;;;;;;;;20.69;69.49;97369.69;5084283;28;19924;-60
2022/05/29 10:39:31;;;;;;;;;;;;;;;19.39;73.17;97367.69;5082757;28;19929;-60
2022/05/29 10:41:58;;;;;;;;;;;;;;;18.62;80.31;97365.56;5080539;28;19939;-59
2022/05/29 10:44:41;;;;;;;;;;;;;;;18.59;73.57;97360.00;5081327;28;19921;-59
2022/05/29 10:47:10;;;;;;;;;;;;;;;18.02;83.93;97363.13;5083834;28;19971;-60
2022/05/29 10:49:38;;;;;;;;;;;;;;;18.31;83.92;97363.16;5081354;28;19956;-59
2022/05/29 10:52:17;;;;;;;;;;;;;;;18.38;82.74;97359.16;5080567;28;19927;-59
2022/05/29 10:55:01;;;;;;;;;;;;;;;18.36;71.86;97367.56;5070891;28;19963;-59
2022/05/29 10:57:53;;;;;;;;;;;;;;;17.92;81.33;97363.47;5081311;28;19928;-58
2022/05/29 11:00:29;;;;;;;;;;;;;;;17.94;78.54;97355.06;5083698;28;19982;-60
2022/05/29 11:03:19;;;;;;;;;;;;;;;17.82;78.66;97342.22;5080307;28;19924;-60
2022/05/29 11:06:06;;;;;;;;;;;;;;;17.44;83.96;97346.72;5061306;28;19943;-59
2022/05/29 11:08:38;;;;;;;;;;;;;;;17.51;85.86;97353.25;5081568;28;19921;-58
2022/05/29 11:11:15;;;;;;;;;;;;;;;17.52;84.51;97349.41;5083365;28;19920;-59
2022/05/29 11:13:54;;;;;;;;;;;;;;;17.62;83.32;97343.72;5079760;28;19925;-60
2022/05/29 11:16:25;;;;;;;;;;;;;;;17.89;81.51;97330.94;5079944;28;19967;-60
2022/05/29 11:19:03;;;;;;;;;;;;;;;17.89;76.63;97334.41;5081841;28;19931;-58
2022/05/29 11:21:38;;;;;;;;;;;;;;;17.87;80.30;97323.13;5080402;28;21302;-59
2022/05/29 11:24:29;;;;;;;;;;;;;;;17.86;79.58;97320.78;5079549;28;19921;-59
2022/05/29 11:27:01;;;;;;;;;;;;;;;17.81;78.97;97324.44;5062401;28;19929;-58
2022/05/29 11:29:33;;;;;;;;;;;;;;;17.93;77.00;97324.53;5080516;28;19936;-60
2022/05/29 11:32:05;;;;;;;;;;;;;;;18.05;76.20;97323.84;5081905;28;19951;-59
2022/05/29 11:34:35;;;;;;;;;;;;;;;18.09;74.73;97314.78;5080885;28;19924;-59
2022/05/29 11:37:12;;;;;;;;;;;;;;;18.24;72.71;97316.91;5078227;28;19925;-60
2022/05/29 11:39:41;;;;;;;;;;;;;;;18.32;71.40;97313.38;5082211;28;19967;-60
2022/05/29 11:42:11;;;;;;;;;;;;;;;18.23;71.13;97320.72;5079580;28;19975;-60
2022/05/29 11:44:42;;;;;;;;;;;;;;;18.46;68.50;97310.44;5081959;28;19956;-60
2022/05/29 11:52:53;;;;;;;;;;;;;;;18.26;66.65;97308.47;5070786;28;19996;-59
2022/05/29 11:55:22;;;;;;;;;;;;;;;18.50;65.42;97295.19;5079138;28;19925;-59
2022/05/29 11:57:52;;;;;;;;;;;;;;;18.39;62.30;97295.84;5082455;28;19924;-59
2022/05/29 12:00:22;;;;;;;;;;;;;;;18.12;61.33;97294.41;5082364;28;19992;-59
2022/05/29 12:02:55;;;;;;;;;;;;;;;18.08;59.89;97290.75;5078619;28;19920;-60
2022/05/29 12:05:27;;;;;;;;;;;;;;;17.95;57.94;97297.97;5078926;28;19925;-60
2022/05/29 12:07:57;;;;;;;;;;;;;;;17.78;59.95;97288.06;5081994;28;19964;-59
2022/05/29 12:10:26;;;;;;;;;;;;;;;17.48;61.91;97282.91;5080982;28;19995;-59
2022/05/29 12:12:57;;;;;;;;;;;;;;;17.34;64.08;97291.19;5078690;28;19939;-59
2022/05/29 12:15:23;;;;;;;;;;;;;;;16.67;65.36;97297.13;5081281;28;19932;-60
2022/05/29 12:17:53;;;;;;;;;;;;;;;16.45;69.08;97302.63;5078629;28;19920;-58
2022/05/29 12:20:23;;;;;;;;;;;;;;;15.96;74.31;97303.00;5078653;28;19932;-59
2022/05/29 12:22:56;;;;;;;;;;;;;;;15.67;79.35;97300.81;5081788;28;19920;-59
2022/05/29 12:25:28;;;;;;;;;;;;;;;15.98;80.74;97300.75;5081105;28;20402;-60
2022/05/29 12:27:55;;;;;;;;;;;;;;;16.40;77.93;97299.28;5078760;28;19925;-60
2022/05/29 12:30:25;;;;;;;;;;;;;;;16.66;75.02;97310.91;5079092;28;20012;-58
2022/05/29 12:32:52;;;;;;;;;;;;;;;16.58;74.17;97300.94;5081915;28;20008;-59
2022/05/29 12:35:23;;;;;;;;;;;;;;;16.16;71.25;97310.47;5081627;28;19925;-58
2022/05/29 12:38:04;;;;;;;;;;;;;;;16.25;72.79;97313.22;5078133;28;19988;-59
2022/05/29 12:40:46;;;;;;;;;;;;;;;15.71;75.60;97317.94;5079782;28;20022;-59
2022/05/29 12:43:27;;;;;;;;;;;;;;;15.77;72.57;97316.69;5081915;28;19987;-60
2022/05/29 12:46:00;;;;;;;;;;;;;;;15.64;74.05;97310.31;5071469;28;19993;-59
2022/05/29 12:48:45;;;;;;;;;;;;;;;15.99;75.17;97313.13;5078228;28;19921;-60
2022/05/29 12:51:21;;;;;;;;;;;;;;;15.86;72.51;97320.22;5081885;28;19966;-58
2022/05/29 12:53:59;;;;;;;;;;;;;;;15.83;71.46;97306.56;5070450;28;20015;-59
2022/05/29 12:56:35;;;;;;;;;;;;;;;15.84;68.69;97314.34;5078942;28;19932;-60
2022/05/29 12:59:14;;;;;;;;;;;;;;;16.00;66.68;97315.50;5081633;28;19968;-59
2022/05/29 13:01:50;;;;;;;;;;;;;;;15.83;65.18;97309.28;5077726;28;19925;-60
2022/05/29 13:04:38;;;;;;;;;;;;;;;15.74;64.36;97306.53;5078492;28;19932;-58
2022/05/29 13:07:14;;;;;;;;;;;;;;;15.83;66.54;97295.81;5073003;28;19963;-59
2022/05/29 13:09:59;;;;;;;;;;;;;;;15.95;64.66;97294.09;5081314;28;20026;-59
2022/05/29 13:12:30;;;;;;;;;;;;;;;15.76;62.46;97292.75;5076833;28;19967;-58
2022/05/29 13:14:59;;;;;;;;;;;;;;;15.72;66.51;97303.34;5081633;28;19988;-59
2022/05/29 13:17:27;;;;;;;;;;;;;;;15.54;66.17;97299.00;5080553;28;19924;-59
2022/05/29 13:20:01;;;;;;;;;;;;;;;15.81;68.42;97296.13;5081919;28;20494;-59
2022/05/29 13:22:55;;;;;;;;;;;;;;;16.04;68.15;97303.00;5082725;28;19939;-58
2022/05/29 13:25:23;;;;;;;;;;;;;;;16.19;66.40;97297.19;5048855;28;19933;-59
2022/05/29 13:27:51;;;;;;;;;;;;;;;16.08;65.67;97306.66;5080535;28;19992;-59
2022/05/29 13:30:36;;;;;;;;;;;;;;;16.17;65.93;97315.56;5081507;28;19921;-59